createdAt,value
2022-12-11T00:00:38.472Z,1.27
2022-12-11T00:03:04.982Z,1.24
2022-12-11T00:05:31.384Z,1.25
2022-12-11T00:07:57.935Z,1.19
2022-12-11T00:10:24.850Z,1.07
2022-12-11T00:12:51.230Z,1.24
2022-12-11T00:15:17.655Z,1.19
2022-12-11T00:17:44.155Z,1.29
2022-12-11T00:20:11.069Z,1.26
2022-12-11T00:22:37.429Z,1.19
2022-12-11T00:25:04.248Z,1.19
2022-12-11T00:27:30.570Z,1.10
2022-12-11T00:29:57.079Z,1.23
2022-12-11T00:32:23.463Z,1.16
2022-12-11T00:34:49.790Z,1.14
2022-12-11T00:37:16.313Z,1.18
2022-12-11T00:39:42.773Z,1.21
2022-12-11T00:42:09.438Z,1.06
2022-12-11T00:44:36.003Z,1.07
2022-12-11T00:47:02.981Z,1.04
2022-12-11T00:49:29.642Z,1.05
2022-12-11T00:51:55.969Z,1.08
2022-12-11T00:54:22.372Z,1.03
2022-12-11T00:56:48.926Z,1.03
2022-12-11T00:59:15.305Z,1.13
2022-12-11T01:01:41.713Z,1.14
2022-12-11T01:04:08.224Z,1.06
2022-12-11T01:06:34.652Z,0.82
2022-12-11T01:09:01.061Z,1.03
2022-12-11T01:11:27.738Z,1.13
2022-12-11T01:13:54.129Z,1.24
2022-12-11T01:16:20.657Z,1.14
2022-12-11T01:18:47.068Z,1.11
2022-12-11T01:21:13.914Z,1.07
2022-12-11T01:23:40.588Z,1.09
2022-12-11T01:26:09.769Z,1.04
2022-12-11T01:28:36.550Z,1.07
2022-12-11T01:31:03.328Z,1.18
2022-12-11T01:33:29.719Z,0.93
2022-12-11T01:35:56.046Z,0.84
2022-12-11T01:38:22.461Z,0.93
2022-12-11T01:40:51.132Z,0.86
2022-12-11T01:43:18.060Z,0.83
2022-12-11T01:45:49.384Z,0.84
2022-12-11T01:48:22.653Z,0.82
2022-12-11T01:50:52.177Z,0.76
2022-12-11T01:53:24.991Z,0.76
2022-12-11T01:55:54.946Z,0.79
2022-12-11T01:58:24.800Z,0.86
2022-12-11T02:00:53.016Z,0.88
2022-12-11T02:03:19.719Z,0.79
2022-12-11T02:05:46.115Z,0.75
2022-12-11T02:08:12.623Z,0.92
2022-12-11T02:11:03.796Z,0.91
2022-12-11T02:13:38.074Z,0.88
2022-12-11T02:16:26.476Z,0.88
2022-12-11T02:19:02.831Z,0.86
2022-12-11T02:21:38.212Z,0.86
2022-12-11T02:24:07.409Z,0.80
2022-12-11T02:26:53.780Z,0.83
2022-12-11T02:29:26.241Z,0.75
2022-12-11T02:32:17.365Z,0.64
2022-12-11T02:34:49.091Z,0.64
2022-12-11T02:37:20.414Z,0.60
2022-12-11T02:39:50.597Z,0.67
2022-12-11T02:42:19.247Z,0.70
2022-12-11T02:44:48.620Z,0.61
2022-12-11T02:47:17.387Z,0.66
2022-12-11T02:49:49.279Z,0.76
2022-12-11T02:52:20.935Z,0.74
2022-12-11T02:54:49.604Z,0.69
2022-12-11T02:57:34.024Z,0.66
2022-12-11T03:00:00.541Z,0.69
2022-12-11T03:02:27.344Z,0.68
2022-12-11T03:04:53.953Z,0.71
2022-12-11T03:07:27.519Z,0.70
2022-12-11T03:09:54.430Z,0.62
2022-12-11T03:12:27.462Z,0.74
2022-12-11T03:14:54.275Z,0.62
2022-12-11T03:17:26.993Z,0.59
2022-12-11T03:20:00.684Z,0.47
2022-12-11T03:22:44.968Z,0.60
2022-12-11T03:25:19.113Z,0.63
2022-12-11T03:27:57.255Z,0.39
2022-12-11T03:30:28.773Z,0.60
2022-12-11T03:33:09.128Z,0.61
2022-12-11T03:35:48.935Z,0.51
2022-12-11T03:38:21.091Z,0.51
2022-12-11T03:40:51.546Z,0.52
2022-12-11T03:43:21.203Z,0.48
2022-12-11T03:45:50.548Z,0.50
2022-12-11T03:48:18.615Z,0.46
2022-12-11T03:50:48.151Z,0.46
2022-12-11T03:53:14.985Z,0.49
2022-12-11T03:55:41.999Z,0.41
2022-12-11T03:58:08.536Z,0.42
2022-12-11T04:00:35.001Z,0.51
2022-12-11T04:03:01.402Z,0.41
2022-12-11T04:05:27.698Z,0.43
2022-12-11T04:07:54.263Z,0.40
2022-12-11T04:10:20.723Z,0.38
2022-12-11T04:12:47.105Z,0.43
2022-12-11T04:15:13.826Z,0.44
2022-12-11T04:17:40.173Z,0.48
2022-12-11T04:20:07.628Z,0.47
2022-12-11T04:22:33.965Z,0.48
2022-12-11T04:25:01.643Z,0.66
2022-12-11T04:27:28.014Z,0.62
2022-12-11T04:29:54.610Z,0.64
2022-12-11T04:32:20.924Z,0.57
2022-12-11T04:34:47.446Z,0.51
2022-12-11T04:37:13.834Z,0.64
2022-12-11T04:39:40.195Z,0.64
2022-12-11T04:42:06.578Z,0.65
2022-12-11T04:44:33.673Z,0.53
2022-12-11T04:47:00.102Z,0.49
2022-12-11T04:49:26.665Z,0.60
2022-12-11T04:51:53.347Z,0.51
2022-12-11T04:54:19.679Z,0.69
2022-12-11T04:56:46.359Z,0.74
2022-12-11T04:59:12.892Z,0.58
2022-12-11T05:01:39.587Z,0.49
2022-12-11T05:04:06.293Z,0.52
2022-12-11T05:06:32.940Z,0.52
2022-12-11T05:08:59.338Z,0.48
2022-12-11T05:11:25.728Z,0.42
2022-12-11T05:13:52.116Z,0.47
2022-12-11T05:16:18.552Z,0.45
2022-12-11T05:18:45.628Z,0.44
2022-12-11T05:21:14.155Z,0.55
2022-12-11T05:23:42.192Z,0.44
2022-12-11T05:26:12.751Z,0.41
2022-12-11T05:28:41.368Z,0.43
2022-12-11T05:31:14.530Z,0.52
2022-12-11T05:33:40.997Z,0.57
2022-12-11T05:36:08.524Z,0.60
2022-12-11T05:38:35.345Z,0.41
2022-12-11T05:41:07.593Z,0.63
2022-12-11T05:43:36.203Z,0.58
2022-12-11T05:46:27.908Z,0.43
2022-12-11T05:48:57.350Z,0.48
2022-12-11T05:51:24.258Z,0.33
2022-12-11T05:53:52.948Z,0.33
2022-12-11T05:56:25.386Z,0.32
2022-12-11T05:58:52.977Z,0.34
2022-12-11T06:01:25.399Z,0.35
2022-12-11T06:03:53.058Z,0.42
2022-12-11T06:06:19.710Z,0.35
2022-12-11T06:08:46.403Z,0.33
2022-12-11T06:11:13.877Z,0.37
2022-12-11T06:13:40.683Z,0.41
2022-12-11T06:16:08.480Z,0.27
2022-12-11T06:18:40.167Z,0.34
2022-12-11T06:21:25.380Z,0.30
2022-12-11T06:23:54.182Z,0.22
2022-12-11T06:26:21.642Z,0.52
2022-12-11T06:28:48.997Z,0.57
2022-12-11T06:31:15.808Z,0.43
2022-12-11T06:33:43.057Z,0.40
2022-12-11T06:36:12.759Z,0.39
2022-12-11T06:38:39.273Z,0.35
2022-12-11T06:41:07.866Z,0.52
2022-12-11T06:43:36.529Z,0.32
2022-12-11T06:46:07.882Z,0.31
2022-12-11T06:48:34.505Z,0.26
2022-12-11T06:51:05.787Z,0.42
2022-12-11T06:53:32.245Z,0.34
2022-12-11T06:56:04.009Z,0.34
2022-12-11T06:58:30.568Z,0.27
2022-12-11T07:00:57.353Z,0.33
2022-12-11T07:03:23.935Z,0.35
2022-12-11T07:05:50.621Z,0.13
2022-12-11T07:08:17.514Z,0.15
2022-12-11T07:10:44.214Z,0.14
2022-12-11T07:13:11.544Z,0.05
2022-12-11T07:15:40.502Z,0.10
2022-12-11T07:18:07.009Z,0.02
2022-12-11T07:20:33.628Z,0.07
2022-12-11T07:23:00.022Z,0.14
2022-12-11T07:25:26.394Z,0.07
2022-12-11T07:27:52.741Z,0.07
2022-12-11T07:30:19.138Z,0.10
2022-12-11T07:32:45.477Z,0.09
2022-12-11T07:35:12.129Z,0.30
2022-12-11T07:37:41.193Z,0.33
2022-12-11T07:40:08.450Z,0.24
2022-12-11T07:42:35.149Z,0.25
2022-12-11T07:45:01.777Z,0.46
2022-12-11T07:47:28.109Z,0.49
2022-12-11T07:49:54.422Z,0.36
2022-12-11T07:52:20.953Z,0.32
2022-12-11T07:54:47.314Z,0.37
2022-12-11T07:57:14.360Z,0.29
2022-12-11T07:59:40.851Z,0.40
2022-12-11T08:02:09.065Z,0.43
2022-12-11T08:04:35.608Z,0.27
2022-12-11T08:07:01.943Z,0.27
2022-12-11T08:09:28.264Z,0.24
2022-12-11T08:11:54.984Z,0.22
2022-12-11T08:14:21.384Z,0.21
2022-12-11T08:16:49.562Z,0.31
2022-12-11T08:19:16.731Z,0.31
2022-12-11T08:21:43.531Z,0.28
2022-12-11T08:24:10.110Z,0.34
2022-12-11T08:26:37.065Z,0.42
2022-12-11T08:29:03.675Z,0.51
2022-12-11T08:31:30.466Z,0.50
2022-12-11T08:33:57.903Z,0.46
2022-12-11T08:36:25.262Z,0.49
2022-12-11T08:38:54.922Z,0.34
2022-12-11T08:41:23.790Z,0.59
2022-12-11T08:43:50.686Z,0.57
2022-12-11T08:46:17.052Z,0.45
2022-12-11T08:48:43.859Z,0.61
2022-12-11T08:51:15.905Z,0.63
2022-12-11T08:53:43.247Z,0.42
2022-12-11T08:56:15.658Z,0.53
2022-12-11T08:58:42.648Z,0.56
2022-12-11T09:01:11.144Z,0.58
2022-12-11T09:03:38.838Z,0.62
2022-12-11T09:06:11.354Z,0.70
2022-12-11T09:08:38.101Z,0.67
2022-12-11T09:11:10.486Z,0.66
2022-12-11T09:13:37.854Z,0.68
2022-12-11T09:16:10.428Z,0.77
2022-12-11T09:18:38.271Z,0.80
2022-12-11T09:21:09.609Z,0.94
2022-12-11T09:23:36.431Z,0.84
2022-12-11T09:26:10.648Z,0.85
2022-12-11T09:28:41.358Z,0.94
2022-12-11T09:31:13.895Z,1.01
2022-12-11T09:33:40.708Z,1.04
2022-12-11T09:36:08.979Z,1.16
2022-12-11T09:38:36.280Z,1.19
2022-12-11T09:41:17.198Z,1.21
2022-12-11T09:44:16.201Z,1.14
2022-12-11T09:46:43.352Z,1.12
2022-12-11T09:49:25.751Z,1.12
2022-12-11T09:52:17.747Z,1.00
2022-12-11T09:54:50.036Z,1.12
2022-12-11T09:57:37.477Z,1.28
2022-12-11T10:00:26.331Z,1.41
2022-12-11T10:03:11.786Z,1.51
2022-12-11T10:06:04.569Z,1.51
2022-12-11T10:08:34.302Z,1.52
2022-12-11T10:11:32.448Z,1.52
2022-12-11T10:14:10.485Z,1.33
2022-12-11T10:16:49.587Z,1.20
2022-12-11T10:19:29.070Z,1.09
2022-12-11T10:21:56.494Z,1.15
2022-12-11T10:25:10.050Z,1.22
2022-12-11T10:27:34.445Z,1.52
2022-12-11T10:30:17.505Z,1.37
2022-12-11T10:33:06.539Z,1.61
2022-12-11T10:35:42.382Z,1.34
2022-12-11T10:38:30.026Z,1.33
2022-12-11T10:41:11.855Z,1.37
2022-12-11T10:43:42.888Z,1.47
2022-12-11T10:46:17.616Z,1.56
2022-12-11T10:48:56.216Z,1.70
2022-12-11T10:51:30.855Z,1.62
2022-12-11T10:54:07.184Z,1.49
2022-12-11T10:56:37.404Z,1.51
2022-12-11T10:59:04.073Z,1.57
2022-12-11T11:01:32.519Z,2.05
2022-12-11T11:04:04.109Z,1.81
2022-12-11T11:06:30.652Z,1.82
2022-12-11T11:08:58.534Z,1.94
2022-12-11T11:11:34.289Z,2.14
2022-12-11T11:14:21.123Z,2.20
2022-12-11T11:16:50.146Z,2.12
2022-12-11T11:19:32.634Z,1.89
2022-12-11T11:22:02.536Z,1.83
2022-12-11T11:24:36.806Z,1.73
2022-12-11T11:27:13.522Z,1.59
2022-12-11T11:29:41.427Z,1.60
2022-12-11T11:32:17.760Z,1.50
2022-12-11T11:34:44.140Z,1.54
2022-12-11T11:37:46.443Z,1.59
2022-12-11T11:40:36.942Z,1.63
2022-12-11T11:43:19.246Z,1.47
2022-12-11T11:45:53.489Z,1.52
2022-12-11T11:48:58.615Z,1.37
2022-12-11T11:51:32.047Z,1.28
2022-12-11T11:54:02.970Z,1.28
2022-12-11T11:56:35.020Z,1.14
2022-12-11T11:59:17.747Z,1.04
2022-12-11T12:01:44.188Z,1.01
2022-12-11T12:04:11.310Z,0.97
2022-12-11T12:07:02.789Z,0.98
2022-12-11T12:09:52.872Z,1.14
2022-12-11T12:12:50.325Z,1.13
2022-12-11T12:15:35.793Z,1.07
2022-12-11T12:18:13.974Z,1.19
2022-12-11T12:20:54.647Z,1.08
2022-12-11T12:23:36.885Z,1.07
2022-12-11T12:26:17.170Z,1.08
2022-12-11T12:28:55.690Z,1.06
2022-12-11T12:31:50.994Z,1.10
2022-12-11T12:34:31.860Z,1.21
2022-12-11T12:37:21.559Z,1.29
2022-12-11T12:39:53.525Z,1.07
2022-12-11T12:42:34.123Z,1.11
2022-12-11T12:45:05.351Z,1.02
2022-12-11T12:47:35.506Z,1.21
2022-12-11T12:50:03.909Z,1.03
2022-12-11T12:52:38.944Z,1.36
2022-12-11T12:55:19.243Z,0.98
2022-12-11T12:57:57.250Z,1.03
2022-12-11T13:00:35.476Z,0.94
2022-12-11T13:03:13.398Z,0.80
2022-12-11T13:05:43.200Z,0.68
2022-12-11T13:08:11.020Z,0.84
2022-12-11T13:10:40.000Z,0.75
2022-12-11T13:13:32.547Z,0.84
2022-12-11T13:16:17.092Z,1.01
2022-12-11T13:18:45.689Z,0.93
2022-12-11T13:21:33.732Z,0.92
2022-12-11T13:24:16.637Z,0.81
2022-12-11T13:26:43.702Z,0.83
2022-12-11T13:29:28.832Z,0.85
2022-12-11T13:32:22.613Z,0.77
2022-12-11T13:35:00.181Z,0.88
2022-12-11T13:37:33.648Z,0.96
2022-12-11T13:40:04.442Z,0.92
2022-12-11T13:42:54.350Z,1.00
2022-12-11T13:45:51.465Z,1.10
2022-12-11T13:48:27.027Z,0.98
2022-12-11T13:50:53.862Z,0.94
2022-12-11T13:53:21.871Z,1.07
2022-12-11T13:56:02.272Z,1.02
2022-12-11T13:58:30.127Z,1.01
2022-12-11T14:01:07.243Z,0.93
2022-12-11T14:03:34.811Z,0.88
2022-12-11T14:06:02.558Z,1.04
2022-12-11T14:08:38.163Z,1.00
2022-12-11T14:11:05.599Z,0.94
2022-12-11T14:13:41.070Z,0.87
2022-12-11T14:16:08.045Z,0.94
2022-12-11T14:18:36.494Z,0.81
2022-12-11T14:21:06.098Z,0.95
2022-12-11T14:23:35.586Z,0.95
2022-12-11T14:26:24.715Z,0.86
2022-12-11T14:28:52.718Z,0.83
2022-12-11T14:31:29.092Z,0.95
2022-12-11T14:34:03.072Z,0.98
2022-12-11T14:36:31.700Z,0.79
2022-12-11T14:39:06.293Z,0.83
2022-12-11T14:41:45.417Z,0.68
2022-12-11T14:44:15.343Z,0.82
2022-12-11T14:46:48.050Z,0.74
2022-12-11T14:49:45.088Z,0.78
2022-12-11T14:52:43.094Z,0.82
2022-12-11T14:55:17.778Z,0.74
2022-12-11T14:57:48.864Z,0.76
2022-12-11T15:00:34.141Z,0.69
2022-12-11T15:03:11.631Z,0.67
2022-12-11T15:05:52.857Z,0.66
2022-12-11T15:08:29.041Z,0.73
2022-12-11T15:11:08.536Z,0.85
2022-12-11T15:13:37.612Z,0.85
2022-12-11T15:16:07.478Z,0.83
2022-12-11T15:18:36.504Z,0.84
2022-12-11T15:21:05.501Z,0.75
2022-12-11T15:23:32.030Z,0.56
2022-12-11T15:26:00.850Z,0.58
2022-12-11T15:28:33.991Z,0.56
2022-12-11T15:31:03.562Z,0.59
2022-12-11T15:33:34.292Z,0.62
2022-12-11T15:36:06.909Z,0.55
2022-12-11T15:38:38.628Z,0.48
2022-12-11T15:41:06.460Z,0.42
2022-12-11T15:43:37.550Z,0.49
2022-12-11T15:46:05.658Z,0.53
2022-12-11T15:48:34.679Z,0.50
2022-12-11T15:51:01.441Z,0.53
2022-12-11T15:53:28.114Z,0.50
2022-12-11T15:55:54.993Z,0.39
2022-12-11T15:58:23.881Z,0.43
2022-12-11T16:00:50.947Z,0.29
2022-12-11T16:03:19.156Z,0.34
2022-12-11T16:05:46.316Z,0.33
2022-12-11T16:08:15.154Z,0.30
2022-12-11T16:10:45.294Z,0.26
2022-12-11T16:13:12.926Z,0.24
2022-12-11T16:15:45.251Z,0.23
2022-12-11T16:18:14.683Z,0.14
2022-12-11T16:20:44.341Z,0.16
2022-12-11T16:23:11.694Z,0.21
2022-12-11T16:25:39.759Z,0.12
2022-12-11T16:28:07.227Z,0.22
2022-12-11T16:30:35.679Z,0.16
2022-12-11T16:33:08.593Z,0.18
2022-12-11T16:35:38.699Z,0.30
2022-12-11T16:38:05.168Z,0.21
2022-12-11T16:40:31.643Z,0.22
2022-12-11T16:42:58.172Z,0.10
2022-12-11T16:45:25.696Z,0.14
2022-12-11T16:47:53.176Z,0.15
2022-12-11T16:50:20.069Z,0.13
2022-12-11T16:52:46.629Z,0.15
2022-12-11T16:55:14.272Z,0.20
2022-12-11T16:57:41.201Z,0.14
2022-12-11T17:00:10.364Z,0.08
2022-12-11T17:02:36.731Z,0.06
2022-12-11T17:05:03.612Z,0.12
2022-12-11T17:07:31.879Z,0.13
2022-12-11T17:09:58.592Z,0.13
2022-12-11T17:12:25.069Z,0.19
2022-12-11T17:14:51.513Z,0.14
2022-12-11T17:17:17.898Z,0.14
2022-12-11T17:19:44.320Z,0.05
2022-12-11T17:22:10.625Z,0.06
2022-12-11T17:24:37.064Z,0.07
2022-12-11T17:27:03.484Z,0.00
2022-12-11T17:29:29.789Z,0.17
2022-12-11T17:31:56.118Z,0.21
2022-12-11T17:34:22.585Z,0.11
2022-12-11T17:36:48.891Z,0.11
2022-12-11T17:39:15.225Z,0.06
2022-12-11T17:41:41.756Z,0.09
2022-12-11T17:44:08.053Z,0.13
2022-12-11T17:46:34.706Z,0.11
2022-12-11T17:49:03.577Z,0.09
2022-12-11T17:51:29.912Z,0.23
2022-12-11T17:53:56.295Z,0.15
2022-12-11T17:56:23.224Z,0.06
2022-12-11T17:58:49.856Z,0.20
2022-12-11T18:01:16.818Z,0.09
2022-12-11T18:03:43.266Z,0.11
2022-12-11T18:06:13.358Z,0.06
2022-12-11T18:08:40.345Z,0.02
2022-12-11T18:11:09.537Z,0.08
2022-12-11T18:13:36.227Z,0.06
2022-12-11T18:16:05.597Z,0.09
2022-12-11T18:18:32.169Z,0.08
2022-12-11T18:20:59.329Z,0.10
2022-12-11T18:23:25.721Z,-0.04
2022-12-11T18:25:53.176Z,0.08
2022-12-11T18:28:19.539Z,0.00
2022-12-11T18:30:46.666Z,0.02
2022-12-11T18:33:13.126Z,-0.06
2022-12-11T18:35:40.215Z,-0.07
2022-12-11T18:38:07.253Z,0.03
2022-12-11T18:40:34.192Z,-0.04
2022-12-11T18:43:00.528Z,0.01
2022-12-11T18:45:27.399Z,-0.01
2022-12-11T18:47:53.754Z,-0.07
2022-12-11T18:50:20.241Z,-0.09
2022-12-11T18:52:46.904Z,-0.16
2022-12-11T18:55:13.713Z,-0.18
2022-12-11T18:57:40.234Z,-0.17
2022-12-11T19:00:07.326Z,-0.19
2022-12-11T19:02:35.215Z,-0.23
2022-12-11T19:05:01.654Z,-0.22
2022-12-11T19:07:28.030Z,-0.24
2022-12-11T19:09:54.623Z,-0.21
2022-12-11T19:12:21.058Z,-0.28
2022-12-11T19:14:47.404Z,-0.41
2022-12-11T19:17:13.859Z,-0.26
2022-12-11T19:19:40.276Z,-0.24
2022-12-11T19:22:06.613Z,-0.30
2022-12-11T19:24:33.128Z,-0.26
2022-12-11T19:26:59.727Z,-0.28
2022-12-11T19:29:29.018Z,-0.28
2022-12-11T19:31:56.010Z,-0.25
2022-12-11T19:34:23.134Z,-0.16
2022-12-11T19:36:49.610Z,-0.17
2022-12-11T19:39:16.567Z,-0.21
2022-12-11T19:41:43.532Z,-0.27
2022-12-11T19:44:10.142Z,-0.23
2022-12-11T19:46:36.767Z,-0.15
2022-12-11T19:49:03.896Z,-0.20
2022-12-11T19:51:33.370Z,-0.13
2022-12-11T19:54:00.822Z,-0.20
2022-12-11T19:56:27.190Z,-0.19
2022-12-11T19:58:53.668Z,-0.23
2022-12-11T20:01:25.861Z,-0.15
2022-12-11T20:03:53.623Z,-0.30
2022-12-11T20:06:20.169Z,-0.13
2022-12-11T20:08:47.035Z,-0.23
2022-12-11T20:11:18.475Z,-0.11
2022-12-11T20:13:46.601Z,-0.13
2022-12-11T20:16:14.080Z,-0.13
2022-12-11T20:18:40.506Z,-0.10
2022-12-11T20:21:09.651Z,-0.16
2022-12-11T20:23:36.198Z,-0.14
2022-12-11T20:26:07.598Z,-0.23
2022-12-11T20:28:34.034Z,-0.21
2022-12-11T20:31:08.606Z,-0.15
2022-12-11T20:33:35.276Z,-0.13
2022-12-11T20:36:02.286Z,-0.22
2022-12-11T20:38:34.107Z,-0.15
2022-12-11T20:41:00.836Z,-0.23
2022-12-11T20:43:27.381Z,-0.12
2022-12-11T20:45:53.731Z,-0.23
2022-12-11T20:48:20.102Z,-0.13
2022-12-11T20:50:46.529Z,-0.16
2022-12-11T20:53:12.997Z,-0.10
2022-12-11T20:55:40.495Z,-0.10
2022-12-11T20:58:07.302Z,-0.21
2022-12-11T21:00:33.902Z,-0.19
2022-12-11T21:03:00.333Z,-0.26
2022-12-11T21:05:26.902Z,-0.26
2022-12-11T21:07:54.395Z,-0.21
2022-12-11T21:10:21.203Z,-0.21
2022-12-11T21:12:47.716Z,-0.20
2022-12-11T21:15:14.527Z,-0.17
2022-12-11T21:17:41.316Z,-0.11
2022-12-11T21:20:08.120Z,-0.13
2022-12-11T21:22:34.768Z,-0.13
2022-12-11T21:25:01.706Z,-0.12
2022-12-11T21:27:28.147Z,-0.23
2022-12-11T21:29:54.832Z,-0.09
2022-12-11T21:32:21.507Z,-0.14
2022-12-11T21:34:50.391Z,-0.13
2022-12-11T21:37:17.361Z,-0.06
2022-12-11T21:39:44.045Z,-0.14
2022-12-11T21:42:10.447Z,-0.15
2022-12-11T21:47:23.148Z,-0.17
2022-12-11T21:49:49.766Z,-0.14
2022-12-11T21:52:16.163Z,-0.09
2022-12-11T21:54:42.569Z,-0.10
2022-12-11T21:57:08.897Z,-0.08
2022-12-11T21:59:35.445Z,-0.17
2022-12-11T22:02:01.817Z,-0.20
2022-12-11T22:04:28.298Z,-0.21
2022-12-11T22:06:54.656Z,-0.17
2022-12-11T22:09:21.003Z,-0.26
2022-12-11T22:11:47.959Z,-0.32
2022-12-11T22:14:16.637Z,-0.29
2022-12-11T22:16:43.924Z,-0.12
2022-12-11T22:19:10.648Z,-0.14
2022-12-11T22:21:37.252Z,-0.12
2022-12-11T22:24:03.903Z,-0.11
2022-12-11T22:26:30.516Z,-0.10
2022-12-11T22:28:57.163Z,-0.17
2022-12-11T22:31:25.704Z,-0.17
2022-12-11T22:33:53.466Z,0.04
2022-12-11T22:36:20.362Z,0.05
2022-12-11T22:38:47.633Z,-0.22
2022-12-11T22:41:22.464Z,-0.10
2022-12-11T22:43:49.543Z,-0.14
2022-12-11T22:46:18.448Z,-0.13
2022-12-11T22:48:44.898Z,-0.12
2022-12-11T22:51:11.933Z,-0.03
2022-12-11T22:53:38.366Z,-0.13
2022-12-11T22:56:06.960Z,-0.05
2022-12-11T22:58:33.555Z,-0.15
2022-12-11T23:01:00.207Z,-0.25
2022-12-11T23:03:26.811Z,-0.46
2022-12-11T23:05:53.415Z,-0.37
2022-12-11T23:08:21.374Z,-0.35
2022-12-11T23:10:48.191Z,-0.30
2022-12-11T23:13:14.541Z,-0.36
2022-12-11T23:15:41.037Z,-0.45
2022-12-11T23:18:07.699Z,-0.44
2022-12-11T23:20:34.191Z,-0.44
2022-12-11T23:23:00.771Z,-0.41
2022-12-11T23:25:27.204Z,-0.51
2022-12-11T23:27:54.417Z,-0.49
2022-12-11T23:30:21.285Z,-0.54
2022-12-11T23:32:47.670Z,-0.68
2022-12-11T23:35:14.334Z,-0.68
2022-12-11T23:37:40.951Z,-0.80
2022-12-11T23:40:08.398Z,-0.84
2022-12-11T23:42:35.404Z,-0.80
2022-12-11T23:45:02.319Z,-0.79
2022-12-11T23:47:28.669Z,-0.90
2022-12-11T23:49:55.154Z,-0.93
2022-12-11T23:52:21.575Z,-0.95
2022-12-11T23:54:47.939Z,-1.04
2022-12-11T23:57:14.324Z,-1.05
2022-12-11T23:59:40.642Z,-1.09
